createdAt,value
2023-02-09T00:01:21.764Z,85.75
2023-02-09T00:03:48.696Z,85.09
2023-02-09T00:06:17.038Z,84.36
2023-02-09T00:08:43.990Z,83.83
2023-02-09T00:11:13.333Z,85.71
2023-02-09T00:13:40.240Z,86.42
2023-02-09T00:16:07.346Z,85.50
2023-02-09T00:18:34.558Z,84.69
2023-02-09T00:21:02.915Z,84.36
2023-02-09T00:23:30.903Z,85.20
2023-02-09T00:25:59.859Z,84.57
2023-02-09T00:28:26.837Z,84.88
2023-02-09T00:30:53.858Z,84.68
2023-02-09T00:33:20.951Z,84.94
2023-02-09T00:35:48.166Z,84.60
2023-02-09T00:38:15.699Z,84.44
2023-02-09T00:40:42.720Z,85.44
2023-02-09T00:43:10.650Z,86.01
2023-02-09T00:45:37.712Z,86.12
2023-02-09T00:48:04.707Z,87.45
2023-02-09T00:50:31.599Z,86.96
2023-02-09T00:52:58.659Z,86.00
2023-02-09T00:55:25.580Z,86.16
2023-02-09T00:57:52.569Z,86.12
2023-02-09T01:00:20.827Z,85.92
2023-02-09T01:02:47.923Z,86.21
2023-02-09T01:05:14.801Z,86.28
2023-02-09T01:07:41.833Z,87.36
2023-02-09T01:10:09.111Z,86.82
2023-02-09T01:12:38.304Z,85.87
2023-02-09T01:15:05.258Z,85.97
2023-02-09T01:17:32.182Z,85.44
2023-02-09T01:19:59.009Z,86.13
2023-02-09T01:22:26.169Z,87.09
2023-02-09T01:24:53.007Z,87.60
2023-02-09T01:27:19.900Z,87.29
2023-02-09T01:29:46.760Z,86.46
2023-02-09T01:32:13.754Z,86.36
2023-02-09T01:34:40.757Z,86.27
2023-02-09T01:37:07.700Z,85.86
2023-02-09T01:39:34.563Z,87.04
2023-02-09T01:42:01.547Z,87.40
2023-02-09T01:44:29.751Z,87.23
2023-02-09T01:46:56.614Z,86.32
2023-02-09T01:49:26.639Z,85.68
2023-02-09T01:51:58.014Z,85.40
2023-02-09T01:54:26.452Z,85.01
2023-02-09T01:56:57.690Z,85.44
2023-02-09T01:59:24.798Z,86.21
2023-02-09T02:01:52.583Z,86.08
2023-02-09T02:04:19.980Z,86.83
2023-02-09T02:06:46.979Z,86.37
2023-02-09T02:09:15.171Z,85.86
2023-02-09T02:11:44.244Z,86.25
2023-02-09T02:14:14.364Z,86.02
2023-02-09T02:16:42.736Z,85.78
2023-02-09T02:19:09.888Z,85.90
2023-02-09T02:21:38.311Z,86.76
2023-02-09T02:24:08.244Z,86.34
2023-02-09T02:26:36.549Z,86.36
2023-02-09T02:29:07.338Z,87.31
2023-02-09T02:31:35.598Z,87.72
2023-02-09T02:34:03.987Z,88.11
2023-02-09T02:36:34.449Z,88.74
2023-02-09T02:39:04.781Z,88.87
2023-02-09T02:41:51.914Z,89.95
2023-02-09T02:44:19.345Z,89.34
2023-02-09T02:46:48.963Z,88.29
2023-02-09T02:49:21.810Z,88.24
2023-02-09T02:51:50.309Z,87.78
2023-02-09T02:54:20.057Z,87.48
2023-02-09T02:56:51.035Z,88.41
2023-02-09T02:59:20.079Z,88.58
2023-02-09T03:01:52.261Z,88.30
2023-02-09T03:04:20.234Z,88.46
2023-02-09T03:06:47.129Z,87.87
2023-02-09T03:09:13.957Z,88.21
2023-02-09T03:11:42.744Z,88.35
2023-02-09T03:14:13.339Z,87.47
2023-02-09T03:16:40.640Z,86.50
2023-02-09T03:19:08.891Z,86.10
2023-02-09T03:21:36.282Z,85.74
2023-02-09T03:24:08.818Z,85.07
2023-02-09T03:26:40.325Z,85.17
2023-02-09T03:29:09.273Z,85.15
2023-02-09T03:31:36.443Z,85.02
2023-02-09T03:34:03.584Z,84.86
2023-02-09T03:36:33.211Z,84.90
2023-02-09T03:39:00.227Z,85.06
2023-02-09T03:41:27.110Z,84.95
2023-02-09T03:43:57.281Z,84.60
2023-02-09T03:46:24.223Z,84.51
2023-02-09T03:48:51.220Z,84.53
2023-02-09T03:51:18.380Z,84.71
2023-02-09T03:53:45.422Z,84.91
2023-02-09T03:56:12.407Z,85.11
2023-02-09T03:58:39.276Z,85.28
2023-02-09T04:01:08.311Z,85.31
2023-02-09T04:03:35.620Z,85.37
2023-02-09T04:06:02.627Z,85.07
2023-02-09T04:08:30.304Z,85.04
2023-02-09T04:10:57.841Z,84.90
2023-02-09T04:13:25.186Z,84.74
2023-02-09T04:15:52.640Z,85.03
2023-02-09T04:18:19.608Z,85.20
2023-02-09T04:20:47.112Z,85.23
2023-02-09T04:23:14.332Z,85.24
2023-02-09T04:25:41.193Z,85.53
2023-02-09T04:28:08.094Z,85.73
2023-02-09T04:30:35.099Z,85.44
2023-02-09T04:33:02.039Z,85.62
2023-02-09T04:35:28.930Z,85.37
2023-02-09T04:37:55.728Z,85.44
2023-02-09T04:40:22.646Z,85.71
2023-02-09T04:42:49.603Z,85.65
2023-02-09T04:45:16.604Z,85.91
2023-02-09T04:47:43.432Z,85.85
2023-02-09T04:50:10.924Z,85.66
2023-02-09T04:52:37.859Z,85.42
2023-02-09T04:55:05.027Z,85.58
2023-02-09T04:57:35.058Z,86.24
2023-02-09T05:00:01.892Z,87.25
2023-02-09T05:02:28.799Z,87.98
2023-02-09T05:04:55.586Z,87.62
2023-02-09T05:07:23.516Z,86.28
2023-02-09T05:09:50.389Z,85.49
2023-02-09T05:12:17.244Z,85.47
2023-02-09T05:14:44.157Z,85.20
2023-02-09T05:17:11.043Z,85.25
2023-02-09T05:19:38.009Z,85.39
2023-02-09T05:22:04.888Z,85.33
2023-02-09T05:24:31.748Z,85.07
2023-02-09T05:26:58.685Z,84.79
2023-02-09T05:29:25.544Z,85.04
2023-02-09T05:31:52.525Z,84.50
2023-02-09T05:34:19.439Z,84.42
2023-02-09T05:36:47.986Z,84.51
2023-02-09T05:39:14.810Z,84.23
2023-02-09T05:41:44.728Z,84.17
2023-02-09T05:44:11.776Z,84.13
2023-02-09T05:46:38.611Z,84.30
2023-02-09T05:49:05.402Z,84.35
2023-02-09T05:51:32.363Z,84.33
2023-02-09T05:53:59.185Z,84.17
2023-02-09T05:56:26.114Z,84.42
2023-02-09T05:58:52.980Z,84.70
2023-02-09T06:01:19.798Z,84.83
2023-02-09T06:03:46.801Z,84.37
2023-02-09T06:06:13.627Z,83.72
2023-02-09T06:08:40.575Z,83.97
2023-02-09T06:11:07.704Z,83.98
2023-02-09T06:13:34.648Z,83.74
2023-02-09T06:16:01.727Z,83.91
2023-02-09T06:18:28.551Z,83.64
2023-02-09T06:20:55.447Z,83.84
2023-02-09T06:23:22.332Z,83.68
2023-02-09T06:25:53.341Z,83.87
2023-02-09T06:28:20.767Z,83.73
2023-02-09T06:30:50.690Z,83.71
2023-02-09T06:33:18.425Z,83.74
2023-02-09T06:35:45.272Z,83.58
2023-02-09T06:38:12.639Z,83.33
2023-02-09T06:40:39.514Z,83.53
2023-02-09T06:43:06.467Z,83.38
2023-02-09T06:45:33.404Z,83.02
2023-02-09T06:48:00.301Z,83.10
2023-02-09T06:50:27.315Z,83.12
2023-02-09T06:52:54.336Z,83.60
2023-02-09T06:55:21.222Z,83.46
2023-02-09T06:57:48.161Z,83.14
2023-02-09T07:00:15.457Z,82.77
2023-02-09T07:02:43.408Z,82.92
2023-02-09T07:05:10.743Z,82.96
2023-02-09T07:07:38.191Z,83.35
2023-02-09T07:10:06.061Z,83.82
2023-02-09T07:12:33.480Z,84.22
2023-02-09T07:15:01.252Z,84.24
2023-02-09T07:17:30.247Z,84.16
2023-02-09T07:19:57.355Z,84.57
2023-02-09T07:22:25.803Z,84.86
2023-02-09T07:24:52.665Z,84.76
2023-02-09T07:27:20.095Z,85.24
2023-02-09T07:29:47.132Z,85.16
2023-02-09T07:32:14.024Z,85.30
2023-02-09T07:34:40.911Z,85.76
2023-02-09T07:37:08.209Z,86.03
2023-02-09T07:39:35.483Z,86.68
2023-02-09T07:42:02.525Z,87.26
2023-02-09T07:44:29.631Z,86.13
2023-02-09T07:46:56.626Z,85.58
2023-02-09T07:49:23.975Z,85.19
2023-02-09T07:51:51.331Z,84.75
2023-02-09T07:54:18.251Z,84.40
2023-02-09T07:56:45.203Z,83.96
2023-02-09T07:59:12.163Z,84.08
2023-02-09T08:01:39.272Z,83.84
2023-02-09T08:04:06.398Z,83.74
2023-02-09T08:06:41.901Z,84.17
2023-02-09T08:09:10.041Z,84.57
2023-02-09T08:11:40.555Z,84.91
2023-02-09T08:14:11.711Z,85.04
2023-02-09T08:16:39.085Z,85.60
2023-02-09T08:19:09.384Z,85.42
2023-02-09T08:21:38.718Z,84.89
2023-02-09T08:24:07.345Z,84.93
2023-02-09T08:26:35.482Z,84.90
2023-02-09T08:29:03.009Z,84.77
2023-02-09T08:31:30.457Z,84.86
2023-02-09T08:33:58.240Z,85.42
2023-02-09T08:36:25.360Z,85.15
2023-02-09T08:38:52.870Z,85.34
2023-02-09T08:41:20.145Z,85.42
2023-02-09T08:43:48.599Z,84.34
2023-02-09T08:46:16.110Z,84.17
2023-02-09T08:48:44.092Z,84.94
2023-02-09T08:51:13.564Z,85.36
2023-02-09T08:53:40.859Z,90.14
2023-02-09T08:56:09.182Z,90.88
2023-02-09T08:58:37.105Z,87.00
2023-02-09T09:01:05.898Z,85.04
2023-02-09T09:03:33.587Z,84.02
2023-02-09T09:06:01.992Z,83.48
2023-02-09T09:08:29.986Z,83.03
2023-02-09T09:10:57.188Z,83.09
2023-02-09T09:13:25.930Z,82.55
2023-02-09T09:15:54.596Z,82.49
2023-02-09T09:18:22.223Z,82.74
2023-02-09T09:20:49.739Z,82.62
2023-02-09T09:23:17.169Z,82.54
2023-02-09T09:25:45.495Z,82.24
2023-02-09T09:28:13.251Z,81.77
2023-02-09T09:30:40.335Z,81.91
2023-02-09T09:33:07.611Z,81.79
2023-02-09T09:35:34.625Z,81.78
2023-02-09T09:38:02.307Z,81.53
2023-02-09T09:40:32.541Z,81.44
2023-02-09T09:43:01.179Z,81.72
2023-02-09T09:45:29.538Z,81.62
2023-02-09T09:47:56.862Z,81.63
2023-02-09T09:50:26.684Z,81.67
2023-02-09T09:52:58.037Z,81.46
2023-02-09T09:55:26.593Z,81.73
2023-02-09T09:57:54.678Z,81.81
2023-02-09T10:00:24.838Z,81.58
2023-02-09T10:02:52.266Z,81.10
2023-02-09T10:05:21.343Z,80.45
2023-02-09T10:07:55.185Z,79.99
2023-02-09T10:10:30.303Z,79.64
2023-02-09T10:12:59.484Z,79.44
2023-02-09T10:15:28.459Z,78.51
2023-02-09T10:17:56.209Z,78.17
2023-02-09T10:20:26.767Z,78.07
2023-02-09T10:22:53.799Z,78.01
2023-02-09T10:25:37.302Z,78.18
2023-02-09T10:28:06.823Z,77.56
2023-02-09T10:30:34.002Z,77.77
2023-02-09T10:33:02.693Z,78.48
2023-02-09T10:35:36.161Z,78.65
2023-02-09T10:38:03.733Z,78.57
2023-02-09T10:40:33.253Z,78.96
2023-02-09T10:43:03.139Z,78.63
2023-02-09T10:45:38.352Z,77.84
2023-02-09T10:48:08.770Z,77.77
2023-02-09T10:50:48.183Z,77.32
2023-02-09T10:53:20.760Z,78.21
2023-02-09T10:55:48.269Z,77.81
2023-02-09T10:58:22.089Z,77.27
2023-02-09T11:00:51.101Z,77.44
2023-02-09T11:03:20.040Z,77.28
2023-02-09T11:05:48.251Z,77.31
2023-02-09T11:08:19.421Z,77.29
2023-02-09T11:10:57.155Z,77.66
2023-02-09T11:13:25.533Z,78.28
2023-02-09T11:16:03.573Z,78.14
2023-02-09T11:18:33.744Z,79.22
2023-02-09T11:21:09.571Z,79.20
2023-02-09T11:23:42.252Z,78.39
2023-02-09T11:26:12.322Z,78.35
2023-02-09T11:28:44.424Z,78.25
2023-02-09T11:31:14.886Z,78.59
2023-02-09T11:33:45.409Z,78.48
2023-02-09T11:36:17.789Z,78.93
2023-02-09T11:38:49.488Z,79.21
2023-02-09T11:41:24.251Z,78.90
2023-02-09T11:43:53.202Z,77.31
2023-02-09T11:46:22.635Z,77.14
2023-02-09T11:48:55.450Z,77.29
2023-02-09T11:51:23.912Z,77.48
2023-02-09T11:53:56.141Z,77.19
2023-02-09T11:56:24.508Z,77.02
2023-02-09T11:58:55.309Z,77.57
2023-02-09T12:01:25.342Z,76.75
2023-02-09T12:03:55.637Z,76.68
2023-02-09T12:06:23.655Z,76.74
2023-02-09T12:08:56.852Z,76.54
2023-02-09T12:11:26.939Z,76.33
2023-02-09T12:13:57.003Z,76.09
2023-02-09T12:16:27.143Z,76.19
2023-02-09T12:18:55.834Z,76.19
2023-02-09T12:21:25.979Z,75.57
2023-02-09T12:23:53.305Z,75.32
2023-02-09T12:26:20.947Z,75.54
2023-02-09T12:28:49.898Z,76.25
2023-02-09T12:31:20.976Z,75.27
2023-02-09T12:33:48.454Z,74.36
2023-02-09T12:36:16.965Z,73.85
2023-02-09T12:38:53.498Z,73.97
2023-02-09T12:41:23.210Z,73.97
2023-02-09T12:43:51.252Z,74.13
2023-02-09T12:46:20.491Z,74.36
2023-02-09T12:48:50.606Z,74.03
2023-02-09T12:51:21.163Z,74.10
2023-02-09T12:53:48.932Z,75.15
2023-02-09T12:56:16.456Z,75.79
2023-02-09T12:58:44.985Z,75.04
2023-02-09T13:01:13.366Z,73.61
2023-02-09T13:03:43.762Z,73.58
2023-02-09T13:06:14.176Z,73.69
2023-02-09T13:08:48.048Z,73.59
2023-02-09T13:11:19.585Z,73.37
2023-02-09T13:13:50.003Z,73.03
2023-02-09T13:16:20.240Z,73.70
2023-02-09T13:18:50.849Z,72.41
2023-02-09T13:21:21.336Z,71.87
2023-02-09T13:23:55.748Z,70.32
2023-02-09T13:26:24.472Z,69.03
2023-02-09T13:28:54.667Z,68.08
2023-02-09T13:31:24.908Z,67.33
2023-02-09T13:33:55.700Z,67.60
2023-02-09T13:36:25.910Z,66.19
2023-02-09T13:38:53.913Z,66.09
2023-02-09T13:41:25.138Z,65.46
2023-02-09T13:43:52.781Z,65.32
2023-02-09T13:46:23.060Z,64.47
2023-02-09T13:48:50.731Z,63.86
2023-02-09T13:51:21.184Z,62.98
2023-02-09T13:53:51.585Z,62.06
2023-02-09T13:56:18.859Z,60.93
2023-02-09T13:58:47.290Z,60.44
2023-02-09T14:01:16.294Z,59.27
2023-02-09T14:03:57.399Z,58.39
2023-02-09T14:06:28.224Z,58.25
2023-02-09T14:08:55.874Z,57.93
2023-02-09T14:11:41.165Z,56.64
2023-02-09T14:14:11.739Z,56.12
2023-02-09T14:16:53.091Z,54.63
2023-02-09T14:19:24.814Z,54.19
2023-02-09T14:21:53.097Z,54.29
2023-02-09T14:24:21.761Z,55.02
2023-02-09T14:26:51.732Z,54.49
2023-02-09T14:29:19.149Z,55.27
2023-02-09T14:31:48.026Z,55.47
2023-02-09T14:34:18.193Z,55.83
2023-02-09T14:36:51.652Z,55.70
2023-02-09T14:39:21.347Z,56.76
2023-02-09T14:41:51.430Z,55.74
2023-02-09T14:44:20.704Z,54.74
2023-02-09T14:46:48.866Z,54.41
2023-02-09T14:49:16.228Z,54.37
2023-02-09T14:51:43.601Z,54.48
2023-02-09T14:54:18.310Z,54.69
2023-02-09T14:56:45.637Z,53.77
2023-02-09T14:59:16.719Z,54.93
2023-02-09T15:01:43.907Z,54.36
2023-02-09T15:04:11.091Z,54.01
2023-02-09T15:06:38.685Z,54.12
2023-02-09T15:09:06.316Z,53.43
2023-02-09T15:11:42.259Z,52.92
2023-02-09T15:14:10.693Z,52.90
2023-02-09T15:16:38.100Z,54.19
2023-02-09T15:19:11.252Z,54.41
2023-02-09T15:21:38.499Z,54.05
2023-02-09T15:24:05.977Z,54.36
2023-02-09T15:26:34.894Z,53.89
2023-02-09T15:29:02.048Z,53.55
2023-02-09T15:31:29.300Z,53.88
2023-02-09T15:33:56.466Z,53.59
2023-02-09T15:36:24.276Z,53.88
2023-02-09T15:38:51.583Z,54.24
2023-02-09T15:41:21.825Z,53.70
2023-02-09T15:43:52.538Z,54.38
2023-02-09T15:46:23.183Z,54.20
2023-02-09T15:48:50.703Z,53.91
2023-02-09T15:51:17.972Z,54.63
2023-02-09T15:53:46.352Z,54.92
2023-02-09T15:56:15.315Z,55.74
2023-02-09T15:58:44.611Z,55.22
2023-02-09T16:01:13.778Z,55.07
2023-02-09T16:03:41.106Z,56.13
2023-02-09T16:06:13.180Z,57.09
2023-02-09T16:08:40.468Z,57.14
2023-02-09T16:11:12.786Z,57.18
2023-02-09T16:13:39.995Z,57.36
2023-02-09T16:16:16.675Z,57.49
2023-02-09T16:18:44.815Z,56.71
2023-02-09T16:21:17.169Z,57.30
2023-02-09T16:23:46.133Z,57.07
2023-02-09T16:26:13.496Z,57.67
2023-02-09T16:28:41.098Z,58.14
2023-02-09T16:31:10.307Z,57.62
2023-02-09T16:33:39.522Z,58.32
2023-02-09T16:36:13.402Z,58.34
2023-02-09T16:38:40.924Z,58.04
2023-02-09T16:41:30.931Z,58.41
2023-02-09T16:43:58.503Z,58.49
2023-02-09T16:46:25.656Z,58.63
2023-02-09T16:48:53.243Z,59.01
2023-02-09T16:51:21.169Z,59.08
2023-02-09T16:53:51.944Z,60.49
2023-02-09T16:56:19.955Z,60.65
2023-02-09T16:58:47.966Z,59.61
2023-02-09T17:01:18.121Z,59.36
2023-02-09T17:03:48.609Z,60.00
2023-02-09T17:06:17.716Z,60.12
2023-02-09T17:08:45.397Z,60.04
2023-02-09T17:11:16.912Z,59.95
2023-02-09T17:13:44.130Z,59.73
2023-02-09T17:16:18.388Z,59.60
2023-02-09T17:18:46.358Z,59.79
2023-02-09T17:21:17.076Z,59.83
2023-02-09T17:23:44.787Z,60.25
2023-02-09T17:26:13.307Z,60.28
2023-02-09T17:28:42.960Z,60.60
2023-02-09T17:31:15.913Z,60.58
2023-02-09T17:33:43.544Z,61.01
2023-02-09T17:36:29.587Z,61.64
2023-02-09T17:38:58.304Z,62.30
2023-02-09T17:41:28.619Z,62.37
2023-02-09T17:43:56.948Z,62.02
2023-02-09T17:46:24.958Z,62.14
2023-02-09T17:48:52.584Z,62.50
2023-02-09T17:51:21.883Z,62.38
2023-02-09T17:53:49.423Z,62.96
2023-02-09T17:56:17.008Z,62.78
2023-02-09T17:58:45.094Z,62.99
2023-02-09T18:01:23.675Z,62.94
2023-02-09T18:03:53.814Z,63.11
2023-02-09T18:06:23.264Z,63.29
2023-02-09T18:08:50.760Z,63.24
2023-02-09T18:11:18.049Z,63.54
2023-02-09T18:13:45.668Z,63.99
2023-02-09T18:16:13.947Z,63.81
2023-02-09T18:18:41.563Z,64.15
2023-02-09T18:21:13.313Z,63.66
2023-02-09T18:23:42.475Z,63.75
2023-02-09T18:26:09.952Z,63.86
2023-02-09T18:28:37.249Z,64.04
2023-02-09T18:31:06.789Z,64.40
2023-02-09T18:33:34.493Z,64.91
2023-02-09T18:36:02.768Z,64.66
2023-02-09T18:38:30.660Z,64.83
2023-02-09T18:40:57.698Z,64.66
2023-02-09T18:43:24.864Z,64.84
2023-02-09T18:45:52.273Z,65.00
2023-02-09T18:48:19.880Z,64.64
2023-02-09T18:50:47.233Z,63.99
2023-02-09T18:53:15.158Z,64.03
2023-02-09T18:55:42.507Z,64.55
2023-02-09T18:58:10.280Z,64.97
2023-02-09T19:00:37.971Z,65.80
2023-02-09T19:03:05.542Z,65.86
2023-02-09T19:05:34.919Z,65.11
2023-02-09T19:08:02.307Z,65.02
2023-02-09T19:10:33.376Z,65.47
2023-02-09T19:13:02.903Z,65.91
2023-02-09T19:15:30.549Z,65.77
2023-02-09T19:17:58.187Z,65.92
2023-02-09T19:20:27.883Z,65.83
2023-02-09T19:22:56.225Z,65.87
2023-02-09T19:25:25.342Z,66.19
2023-02-09T19:27:53.081Z,66.40
2023-02-09T19:30:25.205Z,66.56
2023-02-09T19:32:53.675Z,66.55
2023-02-09T19:35:23.119Z,66.73
2023-02-09T19:37:50.935Z,67.06
2023-02-09T19:40:21.815Z,67.12
2023-02-09T19:42:49.276Z,67.47
2023-02-09T19:45:16.671Z,67.54
2023-02-09T19:47:44.387Z,67.64
2023-02-09T19:50:12.208Z,67.42
2023-02-09T19:52:41.067Z,67.53
2023-02-09T19:55:08.667Z,67.76
2023-02-09T19:57:35.878Z,67.71
2023-02-09T20:00:05.978Z,68.18
2023-02-09T20:02:33.146Z,68.66
2023-02-09T20:05:00.209Z,68.97
2023-02-09T20:07:27.188Z,69.21
2023-02-09T20:09:54.139Z,68.88
2023-02-09T20:12:22.396Z,68.94
2023-02-09T20:14:49.734Z,69.21
2023-02-09T20:17:16.743Z,69.18
2023-02-09T20:19:43.845Z,69.36
2023-02-09T20:22:12.339Z,69.25
2023-02-09T20:24:39.332Z,69.23
2023-02-09T20:27:08.137Z,69.34
2023-02-09T20:29:35.432Z,69.35
2023-02-09T20:32:02.466Z,69.37
2023-02-09T20:34:29.527Z,69.39
2023-02-09T20:36:57.827Z,69.61
2023-02-09T20:39:24.803Z,69.86
2023-02-09T20:41:58.320Z,69.82
2023-02-09T20:44:31.407Z,69.67
2023-02-09T20:46:58.509Z,69.75
2023-02-09T20:49:29.871Z,69.75
2023-02-09T20:51:57.031Z,69.67
2023-02-09T20:54:24.340Z,69.98
2023-02-09T20:56:51.396Z,70.40
2023-02-09T20:59:18.318Z,70.61
2023-02-09T21:01:46.267Z,70.62
2023-02-09T21:04:13.500Z,70.74
2023-02-09T21:06:40.458Z,70.89
2023-02-09T21:09:08.733Z,70.70
2023-02-09T21:11:35.588Z,71.12
2023-02-09T21:14:02.994Z,71.12
2023-02-09T21:16:31.195Z,71.00
2023-02-09T21:18:58.923Z,71.20
2023-02-09T21:21:27.422Z,71.36
2023-02-09T21:23:54.550Z,71.62
2023-02-09T21:26:23.031Z,71.98
2023-02-09T21:28:52.265Z,71.73
2023-02-09T21:31:21.314Z,71.82
2023-02-09T21:33:48.740Z,71.91
2023-02-09T21:36:19.045Z,72.16
2023-02-09T21:38:45.995Z,72.23
2023-02-09T21:41:18.257Z,72.50
2023-02-09T21:43:47.257Z,72.74
2023-02-09T21:46:17.178Z,72.67
2023-02-09T21:48:44.170Z,72.56
2023-02-09T21:51:11.465Z,72.39
2023-02-09T21:53:43.690Z,72.42
2023-02-09T21:56:10.572Z,72.81
2023-02-09T21:58:37.406Z,72.96
2023-02-09T22:01:04.571Z,72.94
2023-02-09T22:03:31.600Z,73.17
2023-02-09T22:05:59.361Z,73.15
2023-02-09T22:08:26.965Z,73.12
2023-02-09T22:10:54.045Z,73.27
2023-02-09T22:13:20.946Z,73.46
2023-02-09T22:15:47.826Z,73.40
2023-02-09T22:18:14.787Z,73.71
2023-02-09T22:20:42.552Z,73.65
2023-02-09T22:23:09.751Z,73.70
2023-02-09T22:25:37.454Z,75.14
2023-02-09T22:28:05.006Z,76.42
2023-02-09T22:30:32.371Z,76.54
2023-02-09T22:32:59.451Z,76.24
2023-02-09T22:35:26.447Z,75.68
2023-02-09T22:37:53.417Z,77.17
2023-02-09T22:40:20.699Z,75.92
2023-02-09T22:42:47.816Z,74.91
2023-02-09T22:45:14.709Z,74.88
2023-02-09T22:47:41.628Z,74.78
2023-02-09T22:50:08.839Z,76.32
2023-02-09T22:52:35.745Z,75.85
2023-02-09T22:55:02.573Z,75.39
2023-02-09T22:57:29.357Z,75.08
2023-02-09T22:59:56.180Z,74.99
2023-02-09T23:02:23.994Z,75.41
2023-02-09T23:04:50.831Z,75.74
2023-02-09T23:07:17.763Z,78.79
2023-02-09T23:09:44.985Z,77.79
2023-02-09T23:12:11.845Z,76.75
2023-02-09T23:14:38.719Z,75.96
2023-02-09T23:17:07.313Z,75.37
2023-02-09T23:19:34.236Z,75.80
2023-02-09T23:22:01.082Z,75.71
2023-02-09T23:24:28.587Z,76.73
2023-02-09T23:26:55.565Z,80.18
2023-02-09T23:29:22.493Z,78.79
2023-02-09T23:31:49.664Z,78.10
2023-02-09T23:34:19.584Z,77.12
2023-02-09T23:36:46.884Z,76.38
2023-02-09T23:39:15.728Z,76.36
2023-02-09T23:41:42.553Z,76.18
2023-02-09T23:44:09.495Z,77.06
2023-02-09T23:46:36.485Z,76.43
2023-02-09T23:49:03.430Z,76.36
2023-02-09T23:51:32.057Z,76.38
2023-02-09T23:54:00.443Z,76.45
2023-02-09T23:56:27.932Z,76.37
2023-02-09T23:58:55.048Z,76.25
